sensor_id;sensor_type;location;lat;lon;timestamp;pressure;altitude;pressure_sealevel;temperature;humidity
82033;BME280;71595;52.180;4.512;2023-12-14T00:00:17;101149.91;;;6.10;81.89
82033;BME280;71595;52.180;4.512;2023-12-14T00:02:43;101157.13;;;6.06;82.10
82033;BME280;71595;52.180;4.512;2023-12-14T00:05:08;101151.34;;;6.08;82.26
82033;BME280;71595;52.180;4.512;2023-12-14T00:07:34;101162.00;;;6.09;82.60
82033;BME280;71595;52.180;4.512;2023-12-14T00:09:59;101165.25;;;6.11;81.29
82033;BME280;71595;52.180;4.512;2023-12-14T00:12:24;101170.53;;;6.08;82.18
82033;BME280;71595;52.180;4.512;2023-12-14T00:14:50;101178.75;;;6.08;82.30
82033;BME280;71595;52.180;4.512;2023-12-14T00:17:15;101180.91;;;6.11;81.68
82033;BME280;71595;52.180;4.512;2023-12-14T00:19:41;101183.03;;;6.14;81.82
82033;BME280;71595;52.180;4.512;2023-12-14T00:22:07;101185.25;;;6.12;81.69
82033;BME280;71595;52.180;4.512;2023-12-14T00:24:33;101186.88;;;6.13;81.42
82033;BME280;71595;52.180;4.512;2023-12-14T00:26:58;101192.88;;;6.15;81.44
82033;BME280;71595;52.180;4.512;2023-12-14T00:29:23;101190.13;;;6.15;81.47
82033;BME280;71595;52.180;4.512;2023-12-14T00:31:49;101200.09;;;6.11;81.51
82033;BME280;71595;52.180;4.512;2023-12-14T00:34:14;101210.75;;;6.13;81.77
82033;BME280;71595;52.180;4.512;2023-12-14T00:36:39;101211.56;;;6.13;82.02
82033;BME280;71595;52.180;4.512;2023-12-14T00:39:05;101222.63;;;6.08;81.44
82033;BME280;71595;52.180;4.512;2023-12-14T00:41:30;101229.72;;;6.09;81.77
82033;BME280;71595;52.180;4.512;2023-12-14T00:43:55;101239.59;;;6.10;81.91
82033;BME280;71595;52.180;4.512;2023-12-14T00:46:21;101241.22;;;6.11;82.26
82033;BME280;71595;52.180;4.512;2023-12-14T00:48:46;101248.13;;;6.08;81.44
82033;BME280;71595;52.180;4.512;2023-12-14T00:51:11;101255.53;;;6.08;81.70
82033;BME280;71595;52.180;4.512;2023-12-14T00:53:37;101264.97;;;6.02;81.94
82033;BME280;71595;52.180;4.512;2023-12-14T00:56:02;101266.88;;;6.01;82.19
82033;BME280;71595;52.180;4.512;2023-12-14T00:58:28;101263.81;;;6.03;81.97
82033;BME280;71595;52.180;4.512;2023-12-14T01:00:53;101273.47;;;6.00;82.13
82033;BME280;71595;52.180;4.512;2023-12-14T01:03:20;101279.38;;;6.07;82.36
82033;BME280;71595;52.180;4.512;2023-12-14T01:05:46;101279.16;;;6.04;82.09
82033;BME280;71595;52.180;4.512;2023-12-14T01:08:11;101285.16;;;6.06;81.68
82033;BME280;71595;52.180;4.512;2023-12-14T01:10:36;101290.72;;;6.01;81.61
82033;BME280;71595;52.180;4.512;2023-12-14T01:13:01;101293.53;;;5.96;81.61
82033;BME280;71595;52.180;4.512;2023-12-14T01:15:27;101299.47;;;6.03;81.53
82033;BME280;71595;52.180;4.512;2023-12-14T01:17:52;101294.22;;;6.06;81.54
82033;BME280;71595;52.180;4.512;2023-12-14T01:20:17;101301.09;;;6.04;81.68
82033;BME280;71595;52.180;4.512;2023-12-14T01:22:43;101301.50;;;5.97;81.53
82033;BME280;71595;52.180;4.512;2023-12-14T01:25:08;101307.19;;;6.01;82.23
82033;BME280;71595;52.180;4.512;2023-12-14T01:27:34;101309.94;;;6.01;81.65
82033;BME280;71595;52.180;4.512;2023-12-14T01:29:59;101309.03;;;6.05;81.79
82033;BME280;71595;52.180;4.512;2023-12-14T01:32:24;101316.16;;;6.06;82.24
82033;BME280;71595;52.180;4.512;2023-12-14T01:34:50;101325.69;;;6.09;82.74
82033;BME280;71595;52.180;4.512;2023-12-14T01:37:15;101325.41;;;6.10;81.83
82033;BME280;71595;52.180;4.512;2023-12-14T01:39:40;101332.03;;;6.09;82.14
82033;BME280;71595;52.180;4.512;2023-12-14T01:42:06;101338.81;;;6.12;81.97
82033;BME280;71595;52.180;4.512;2023-12-14T01:44:31;101347.03;;;6.12;81.09
82033;BME280;71595;52.180;4.512;2023-12-14T01:46:56;101345.44;;;6.11;82.02
82033;BME280;71595;52.180;4.512;2023-12-14T01:49:22;101352.53;;;6.12;81.54
82033;BME280;71595;52.180;4.512;2023-12-14T01:51:47;101349.28;;;6.10;81.87
82033;BME280;71595;52.180;4.512;2023-12-14T01:54:12;101358.59;;;6.09;81.96
82033;BME280;71595;52.180;4.512;2023-12-14T01:56:38;101358.00;;;6.12;81.14
82033;BME280;71595;52.180;4.512;2023-12-14T01:59:03;101374.47;;;6.12;82.12
82033;BME280;71595;52.180;4.512;2023-12-14T02:01:38;101377.88;;;6.04;81.52
82033;BME280;71595;52.180;4.512;2023-12-14T02:04:04;101386.03;;;6.09;82.08
82033;BME280;71595;52.180;4.512;2023-12-14T02:06:31;101373.44;;;6.08;81.85
82033;BME280;71595;52.180;4.512;2023-12-14T02:08:57;101391.31;;;6.05;81.33
82033;BME280;71595;52.180;4.512;2023-12-14T02:11:22;101389.06;;;6.07;81.86
82033;BME280;71595;52.180;4.512;2023-12-14T02:13:47;101392.66;;;6.08;80.71
82033;BME280;71595;52.180;4.512;2023-12-14T02:16:13;101394.34;;;6.04;81.23
82033;BME280;71595;52.180;4.512;2023-12-14T02:18:38;101400.34;;;6.06;81.17
82033;BME280;71595;52.180;4.512;2023-12-14T02:21:04;101398.66;;;6.10;81.15
82033;BME280;71595;52.180;4.512;2023-12-14T02:23:29;101401.69;;;6.08;81.48
82033;BME280;71595;52.180;4.512;2023-12-14T02:25:55;101414.03;;;6.06;81.07
82033;BME280;71595;52.180;4.512;2023-12-14T02:28:20;101414.03;;;6.06;80.69
82033;BME280;71595;52.180;4.512;2023-12-14T02:30:46;101423.41;;;6.05;81.04
82033;BME280;71595;52.180;4.512;2023-12-14T02:33:11;101428.88;;;6.05;80.90
82033;BME280;71595;52.180;4.512;2023-12-14T02:35:36;101430.50;;;6.06;80.42
82033;BME280;71595;52.180;4.512;2023-12-14T02:38:02;101438.72;;;6.06;80.39
82033;BME280;71595;52.180;4.512;2023-12-14T02:40:27;101438.22;;;6.04;81.03
82033;BME280;71595;52.180;4.512;2023-12-14T02:42:52;101436.56;;;6.03;80.39
82033;BME280;71595;52.180;4.512;2023-12-14T02:45:18;101432.94;;;6.07;80.42
82033;BME280;71595;52.180;4.512;2023-12-14T02:47:43;101420.13;;;6.03;80.43
82033;BME280;71595;52.180;4.512;2023-12-14T02:50:08;101429.09;;;6.08;80.75
82033;BME280;71595;52.180;4.512;2023-12-14T02:52:34;101426.66;;;6.07;81.18
82033;BME280;71595;52.180;4.512;2023-12-14T02:54:59;101431.91;;;6.03;80.05
82033;BME280;71595;52.180;4.512;2023-12-14T02:57:25;101433.53;;;6.04;80.18
82033;BME280;71595;52.180;4.512;2023-12-14T02:59:50;101432.72;;;6.04;79.89
82033;BME280;71595;52.180;4.512;2023-12-14T03:02:16;101436.81;;;6.06;80.13
82033;BME280;71595;52.180;4.512;2023-12-14T03:04:41;101452.16;;;6.07;79.69
82033;BME280;71595;52.180;4.512;2023-12-14T03:07:07;101458.22;;;6.04;80.21
82033;BME280;71595;52.180;4.512;2023-12-14T03:09:33;101457.91;;;6.06;80.05
82033;BME280;71595;52.180;4.512;2023-12-14T03:12:02;101459.69;;;5.97;80.22
82033;BME280;71595;52.180;4.512;2023-12-14T03:14:32;101461.78;;;6.05;80.84
82033;BME280;71595;52.180;4.512;2023-12-14T03:16:58;101457.41;;;6.04;80.80
82033;BME280;71595;52.180;4.512;2023-12-14T03:19:24;101458.50;;;6.03;80.48
82033;BME280;71595;52.180;4.512;2023-12-14T03:21:49;101465.16;;;5.97;80.37
82033;BME280;71595;52.180;4.512;2023-12-14T03:24:15;101458.22;;;6.04;80.13
82033;BME280;71595;52.180;4.512;2023-12-14T03:26:40;101460.75;;;6.01;79.13
82033;BME280;71595;52.180;4.512;2023-12-14T03:29:05;101465.16;;;5.97;79.40
82033;BME280;71595;52.180;4.512;2023-12-14T03:31:33;101456.91;;;6.02;79.71
82033;BME280;71595;52.180;4.512;2023-12-14T03:33:58;101461.31;;;5.98;79.36
82033;BME280;71595;52.180;4.512;2023-12-14T03:36:24;101471.72;;;6.01;79.76
82033;BME280;71595;52.180;4.512;2023-12-14T03:38:51;101468.16;;;5.95;79.31
82033;BME280;71595;52.180;4.512;2023-12-14T03:41:17;101469.00;;;5.96;79.62
82033;BME280;71595;52.180;4.512;2023-12-14T03:43:42;101480.53;;;5.98;78.89
82033;BME280;71595;52.180;4.512;2023-12-14T03:46:07;101476.09;;;6.02;78.74
82033;BME280;71595;52.180;4.512;2023-12-14T03:48:33;101472.84;;;5.94;78.87
82033;BME280;71595;52.180;4.512;2023-12-14T03:51:05;101475.41;;;5.86;78.98
82033;BME280;71595;52.180;4.512;2023-12-14T03:53:30;101479.72;;;5.92;78.59
82033;BME280;71595;52.180;4.512;2023-12-14T03:55:57;101484.34;;;5.97;78.83
82033;BME280;71595;52.180;4.512;2023-12-14T03:58:23;101483.34;;;5.87;78.79
82033;BME280;71595;52.180;4.512;2023-12-14T04:00:48;101486.50;;;6.00;78.87
82033;BME280;71595;52.180;4.512;2023-12-14T04:03:14;101487.56;;;6.04;78.27
82033;BME280;71595;52.180;4.512;2023-12-14T04:05:39;101492.25;;;6.03;78.27
82033;BME280;71595;52.180;4.512;2023-12-14T04:08:04;101494.69;;;6.05;78.12
82033;BME280;71595;52.180;4.512;2023-12-14T04:10:30;101495.22;;;6.07;78.43
82033;BME280;71595;52.180;4.512;2023-12-14T04:12:55;101501.22;;;6.09;77.65
82033;BME280;71595;52.180;4.512;2023-12-14T04:15:21;101515.00;;;6.04;78.50
82033;BME280;71595;52.180;4.512;2023-12-14T04:17:46;101509.00;;;6.02;78.00
82033;BME280;71595;52.180;4.512;2023-12-14T04:20:12;101518.84;;;6.03;78.19
82033;BME280;71595;52.180;4.512;2023-12-14T04:22:38;101532.81;;;6.06;78.22
82033;BME280;71595;52.180;4.512;2023-12-14T04:25:03;101531.53;;;5.93;78.27
82033;BME280;71595;52.180;4.512;2023-12-14T04:27:29;101536.16;;;5.98;78.51
82033;BME280;71595;52.180;4.512;2023-12-14T04:29:55;101535.88;;;6.00;78.61
82033;BME280;71595;52.180;4.512;2023-12-14T04:32:20;101545.53;;;5.92;78.61
82033;BME280;71595;52.180;4.512;2023-12-14T04:34:46;101544.13;;;5.94;78.61
82033;BME280;71595;52.180;4.512;2023-12-14T04:37:11;101551.56;;;5.94;78.61
82033;BME280;71595;52.180;4.512;2023-12-14T04:39:37;101564.41;;;5.99;78.52
82033;BME280;71595;52.180;4.512;2023-12-14T04:42:02;101578.34;;;6.02;77.71
82033;BME280;71595;52.180;4.512;2023-12-14T04:44:28;101587.69;;;6.01;77.54
82033;BME280;71595;52.180;4.512;2023-12-14T04:46:53;101603.94;;;5.92;77.69
82033;BME280;71595;52.180;4.512;2023-12-14T04:49:19;101596.78;;;5.97;77.13
82033;BME280;71595;52.180;4.512;2023-12-14T04:51:45;101607.19;;;5.94;77.27
82033;BME280;71595;52.180;4.512;2023-12-14T04:54:10;101612.38;;;5.96;77.45
82033;BME280;71595;52.180;4.512;2023-12-14T04:56:35;101618.16;;;5.94;76.79
82033;BME280;71595;52.180;4.512;2023-12-14T04:59:01;101614.63;;;5.94;76.52
82033;BME280;71595;52.180;4.512;2023-12-14T05:01:26;101620.63;;;5.96;76.45
82033;BME280;71595;52.180;4.512;2023-12-14T05:03:54;101616.22;;;5.95;76.48
82033;BME280;71595;52.180;4.512;2023-12-14T05:06:20;101614.59;;;5.99;77.28
82033;BME280;71595;52.180;4.512;2023-12-14T05:08:46;101623.13;;;5.92;77.63
82033;BME280;71595;52.180;4.512;2023-12-14T05:11:14;101628.03;;;5.96;77.18
82033;BME280;71595;52.180;4.512;2023-12-14T05:13:40;101639.00;;;5.96;77.29
82033;BME280;71595;52.180;4.512;2023-12-14T05:16:06;101626.97;;;5.91;77.42
82033;BME280;71595;52.180;4.512;2023-12-14T05:18:31;101635.47;;;5.90;77.82
82033;BME280;71595;52.180;4.512;2023-12-14T05:20:57;101639.56;;;5.92;77.71
82033;BME280;71595;52.180;4.512;2023-12-14T05:23:22;101642.16;;;5.79;77.55
82033;BME280;71595;52.180;4.512;2023-12-14T05:25:49;101646.78;;;5.83;78.66
82033;BME280;71595;52.180;4.512;2023-12-14T05:28:14;101653.31;;;5.87;78.37
82033;BME280;71595;52.180;4.512;2023-12-14T05:30:39;101654.72;;;5.85;78.02
82033;BME280;71595;52.180;4.512;2023-12-14T05:33:05;101654.56;;;5.71;77.62
82033;BME280;71595;52.180;4.512;2023-12-14T05:35:30;101656.28;;;5.62;77.71
82033;BME280;71595;52.180;4.512;2023-12-14T05:37:56;101657.63;;;5.64;77.63
82033;BME280;71595;52.180;4.512;2023-12-14T05:40:21;101666.44;;;5.61;77.92
82033;BME280;71595;52.180;4.512;2023-12-14T05:42:47;101665.53;;;5.71;76.83
82033;BME280;71595;52.180;4.512;2023-12-14T05:45:12;101672.09;;;5.75;77.34
82033;BME280;71595;52.180;4.512;2023-12-14T05:47:37;101663.88;;;5.70;77.40
82033;BME280;71595;52.180;4.512;2023-12-14T05:50:04;101674.59;;;5.66;77.67
82033;BME280;71595;52.180;4.512;2023-12-14T05:52:30;101668.09;;;5.57;77.43
82033;BME280;71595;52.180;4.512;2023-12-14T05:54:55;101677.22;;;5.47;77.64
82033;BME280;71595;52.180;4.512;2023-12-14T05:57:21;101677.78;;;5.44;77.81
82033;BME280;71595;52.180;4.512;2023-12-14T05:59:46;101687.09;;;5.43;78.30
82033;BME280;71595;52.180;4.512;2023-12-14T06:02:11;101676.13;;;5.43;78.31
82033;BME280;71595;52.180;4.512;2023-12-14T06:04:37;101690.91;;;5.47;78.26
82033;BME280;71595;52.180;4.512;2023-12-14T06:07:02;101698.63;;;5.40;78.50
82033;BME280;71595;52.180;4.512;2023-12-14T06:09:28;101706.22;;;5.48;78.28
82033;BME280;71595;52.180;4.512;2023-12-14T06:12:03;101713.59;;;5.53;78.54
82033;BME280;71595;52.180;4.512;2023-12-14T06:14:29;101709.53;;;5.45;78.62
82033;BME280;71595;52.180;4.512;2023-12-14T06:16:55;101712.56;;;5.44;78.10
82033;BME280;71595;52.180;4.512;2023-12-14T06:19:20;101725.78;;;5.36;78.99
82033;BME280;71595;52.180;4.512;2023-12-14T06:21:46;101731.53;;;5.35;78.32
82033;BME280;71595;52.180;4.512;2023-12-14T06:24:11;101751.78;;;5.39;78.27
82033;BME280;71595;52.180;4.512;2023-12-14T06:26:41;101757.00;;;5.35;78.41
82033;BME280;71595;52.180;4.512;2023-12-14T06:29:07;101762.19;;;5.37;78.52
82033;BME280;71595;52.180;4.512;2023-12-14T06:31:32;101760.81;;;5.39;78.20
82033;BME280;71595;52.180;4.512;2023-12-14T06:33:57;101774.25;;;5.41;78.63
82033;BME280;71595;52.180;4.512;2023-12-14T06:36:25;101773.16;;;5.37;78.00
82033;BME280;71595;52.180;4.512;2023-12-14T06:38:54;101777.56;;;5.28;78.45
82033;BME280;71595;52.180;4.512;2023-12-14T06:41:24;101776.75;;;5.32;78.62
82033;BME280;71595;52.180;4.512;2023-12-14T06:43:49;101781.69;;;5.30;78.17
82033;BME280;71595;52.180;4.512;2023-12-14T06:46:15;101791.31;;;5.22;77.95
82033;BME280;71595;52.180;4.512;2023-12-14T06:48:41;101784.47;;;5.20;78.33
82033;BME280;71595;52.180;4.512;2023-12-14T06:51:07;101798.16;;;5.20;78.71
82033;BME280;71595;52.180;4.512;2023-12-14T06:53:34;101801.16;;;5.24;79.06
82033;BME280;71595;52.180;4.512;2023-12-14T06:55:59;101810.25;;;5.09;79.55
82033;BME280;71595;52.180;4.512;2023-12-14T06:58:24;101819.81;;;5.16;79.10
82033;BME280;71595;52.180;4.512;2023-12-14T07:00:50;101816.81;;;5.13;78.76
82033;BME280;71595;52.180;4.512;2023-12-14T07:03:15;101810.78;;;5.11;79.33
82033;BME280;71595;52.180;4.512;2023-12-14T07:05:41;101819.84;;;5.11;79.35
82033;BME280;71595;52.180;4.512;2023-12-14T07:08:06;101815.44;;;5.20;79.24
82033;BME280;71595;52.180;4.512;2023-12-14T07:10:32;101819.56;;;5.13;79.10
82033;BME280;71595;52.180;4.512;2023-12-14T07:12:57;101817.59;;;5.18;78.97
82033;BME280;71595;52.180;4.512;2023-12-14T07:15:23;101822.03;;;5.14;79.42
82033;BME280;71595;52.180;4.512;2023-12-14T07:17:48;101819.25;;;5.19;79.10
82033;BME280;71595;52.180;4.512;2023-12-14T07:20:14;101828.56;;;5.18;79.05
82033;BME280;71595;52.180;4.512;2023-12-14T07:22:39;101833.50;;;5.16;79.47
82033;BME280;71595;52.180;4.512;2023-12-14T07:25:05;101832.16;;;5.09;79.64
82033;BME280;71595;52.180;4.512;2023-12-14T07:27:30;101835.72;;;5.09;79.11
82033;BME280;71595;52.180;4.512;2023-12-14T07:29:56;101841.47;;;5.02;79.52
82033;BME280;71595;52.180;4.512;2023-12-14T07:32:21;101841.75;;;5.06;80.16
82033;BME280;71595;52.180;4.512;2023-12-14T07:34:47;101840.66;;;5.02;79.66
82033;BME280;71595;52.180;4.512;2023-12-14T07:37:40;101841.22;;;4.94;80.20
82033;BME280;71595;52.180;4.512;2023-12-14T07:40:06;101849.97;;;4.91;80.68
82033;BME280;71595;52.180;4.512;2023-12-14T07:42:32;101850.00;;;4.85;80.24
82033;BME280;71595;52.180;4.512;2023-12-14T07:44:57;101854.91;;;4.78;80.43
82033;BME280;71595;52.180;4.512;2023-12-14T07:47:22;101848.94;;;4.71;80.77
82033;BME280;71595;52.180;4.512;2023-12-14T07:49:48;101847.56;;;4.68;80.73
82033;BME280;71595;52.180;4.512;2023-12-14T07:52:13;101846.19;;;4.71;80.73
82033;BME280;71595;52.180;4.512;2023-12-14T07:54:39;101847.56;;;4.68;80.21
82033;BME280;71595;52.180;4.512;2023-12-14T07:57:05;101859.03;;;4.65;80.72
82033;BME280;71595;52.180;4.512;2023-12-14T07:59:30;101864.78;;;4.64;81.03
82033;BME280;71595;52.180;4.512;2023-12-14T08:01:55;101868.06;;;4.61;81.76
82033;BME280;71595;52.180;4.512;2023-12-14T08:04:20;101867.81;;;4.57;81.29
82033;BME280;71595;52.180;4.512;2023-12-14T08:06:46;101881.22;;;4.59;81.11
82033;BME280;71595;52.180;4.512;2023-12-14T08:09:11;101884.22;;;4.57;81.90
82033;BME280;71595;52.180;4.512;2023-12-14T08:11:36;101891.63;;;4.62;82.14
82033;BME280;71595;52.180;4.512;2023-12-14T08:14:02;101888.31;;;4.55;81.61
82033;BME280;71595;52.180;4.512;2023-12-14T08:16:28;101899.53;;;4.53;81.72
82033;BME280;71595;52.180;4.512;2023-12-14T08:18:53;101903.91;;;4.59;81.90
82033;BME280;71595;52.180;4.512;2023-12-14T08:21:19;101909.69;;;4.63;81.42
82033;BME280;71595;52.180;4.512;2023-12-14T08:23:44;101911.34;;;4.69;81.18
82033;BME280;71595;52.180;4.512;2023-12-14T08:26:10;101919.00;;;4.77;81.88
82033;BME280;71595;52.180;4.512;2023-12-14T08:28:40;101920.63;;;4.78;81.28
82033;BME280;71595;52.180;4.512;2023-12-14T08:31:06;101922.53;;;4.78;81.45
82033;BME280;71595;52.180;4.512;2023-12-14T08:33:31;101926.94;;;4.79;81.37
82033;BME280;71595;52.180;4.512;2023-12-14T08:35:57;101930.47;;;4.79;82.24
82033;BME280;71595;52.180;4.512;2023-12-14T08:38:23;101931.28;;;4.80;82.34
82033;BME280;71595;52.180;4.512;2023-12-14T08:40:48;101940.34;;;4.85;82.00
82033;BME280;71595;52.180;4.512;2023-12-14T08:43:14;101941.97;;;4.86;81.89
82033;BME280;71595;52.180;4.512;2023-12-14T08:45:40;101944.97;;;4.95;82.32
82033;BME280;71595;52.180;4.512;2023-12-14T08:48:05;101961.69;;;4.99;82.03
82033;BME280;71595;52.180;4.512;2023-12-14T08:50:31;101952.91;;;4.97;82.21
82033;BME280;71595;52.180;4.512;2023-12-14T08:52:56;101961.69;;;5.04;82.44
82033;BME280;71595;52.180;4.512;2023-12-14T08:55:24;101957.84;;;5.05;81.72
82033;BME280;71595;52.180;4.512;2023-12-14T08:57:49;101964.41;;;5.14;81.72
82033;BME280;71595;52.180;4.512;2023-12-14T09:00:15;101958.41;;;5.17;81.46
82033;BME280;71595;52.180;4.512;2023-12-14T09:02:44;101972.63;;;5.19;81.20
82033;BME280;71595;52.180;4.512;2023-12-14T09:05:12;101967.13;;;5.30;80.75
82033;BME280;71595;52.180;4.512;2023-12-14T09:07:38;101978.06;;;5.30;80.59
82033;BME280;71595;52.180;4.512;2023-12-14T09:10:03;101977.25;;;5.34;79.25
82033;BME280;71595;52.180;4.512;2023-12-14T09:12:29;101971.50;;;5.36;78.74
82033;BME280;71595;52.180;4.512;2023-12-14T09:14:55;101986.84;;;5.37;78.18
82033;BME280;71595;52.180;4.512;2023-12-14T09:17:20;101985.19;;;5.41;79.28
82033;BME280;71595;52.180;4.512;2023-12-14T09:19:45;101987.91;;;5.46;79.26
82033;BME280;71595;52.180;4.512;2023-12-14T09:22:11;101996.94;;;5.47;78.23
82033;BME280;71595;52.180;4.512;2023-12-14T09:24:36;102003.81;;;5.49;78.22
82033;BME280;71595;52.180;4.512;2023-12-14T09:27:02;102002.44;;;5.52;78.16
82033;BME280;71595;52.180;4.512;2023-12-14T09:29:27;102004.91;;;5.53;77.39
82033;BME280;71595;52.180;4.512;2023-12-14T09:31:53;102012.84;;;5.55;78.15
82033;BME280;71595;52.180;4.512;2023-12-14T09:34:18;102003.25;;;5.52;78.90
82033;BME280;71595;52.180;4.512;2023-12-14T09:36:43;102016.41;;;5.55;78.13
82033;BME280;71595;52.180;4.512;2023-12-14T09:39:09;102025.16;;;5.63;77.82
82033;BME280;71595;52.180;4.512;2023-12-14T09:41:38;102027.38;;;5.55;77.82
82033;BME280;71595;52.180;4.512;2023-12-14T09:44:05;102023.53;;;5.62;77.69
82033;BME280;71595;52.180;4.512;2023-12-14T09:46:33;102033.41;;;5.63;77.40
82033;BME280;71595;52.180;4.512;2023-12-14T09:49:00;102039.97;;;5.62;78.24
82033;BME280;71595;52.180;4.512;2023-12-14T09:51:26;102038.84;;;5.68;78.51
82033;BME280;71595;52.180;4.512;2023-12-14T09:53:52;102045.44;;;5.72;78.33
82033;BME280;71595;52.180;4.512;2023-12-14T09:56:45;102041.59;;;5.73;77.92
82033;BME280;71595;52.180;4.512;2023-12-14T09:59:12;102048.72;;;5.74;77.94
82033;BME280;71595;52.180;4.512;2023-12-14T10:01:37;102043.75;;;5.76;78.22
82033;BME280;71595;52.180;4.512;2023-12-14T10:04:09;102046.53;;;5.71;79.08
82033;BME280;71595;52.180;4.512;2023-12-14T10:06:35;102043.50;;;5.78;77.16
82033;BME280;71595;52.180;4.512;2023-12-14T10:09:00;102050.31;;;5.85;77.99
82033;BME280;71595;52.180;4.512;2023-12-14T10:11:26;102048.13;;;5.92;77.50
82033;BME280;71595;52.180;4.512;2023-12-14T10:13:52;102056.34;;;5.92;76.74
82033;BME280;71595;52.180;4.512;2023-12-14T10:16:28;102052.50;;;5.93;76.39
82033;BME280;71595;52.180;4.512;2023-12-14T10:18:55;102052.78;;;6.02;76.85
82033;BME280;71595;52.180;4.512;2023-12-14T10:21:21;102050.56;;;6.04;76.65
82033;BME280;71595;52.180;4.512;2023-12-14T10:23:46;102055.78;;;5.90;77.82
82033;BME280;71595;52.180;4.512;2023-12-14T10:26:12;102060.75;;;5.88;77.77
82033;BME280;71595;52.180;4.512;2023-12-14T10:28:39;102061.28;;;5.96;77.65
82033;BME280;71595;52.180;4.512;2023-12-14T10:31:05;102056.63;;;6.06;78.17
82033;BME280;71595;52.180;4.512;2023-12-14T10:33:30;102064.00;;;6.11;76.48
82033;BME280;71595;52.180;4.512;2023-12-14T10:35:56;102067.81;;;6.20;76.54
82033;BME280;71595;52.180;4.512;2023-12-14T10:38:24;102066.69;;;6.21;76.46
82033;BME280;71595;52.180;4.512;2023-12-14T10:40:51;102064.78;;;6.27;77.05
82033;BME280;71595;52.180;4.512;2023-12-14T10:43:18;102070.50;;;6.30;76.63
82033;BME280;71595;52.180;4.512;2023-12-14T10:45:46;102071.34;;;6.31;77.03
82033;BME280;71595;52.180;4.512;2023-12-14T10:48:13;102077.94;;;6.30;76.90
82033;BME280;71595;52.180;4.512;2023-12-14T10:50:39;102082.00;;;6.33;76.77
82033;BME280;71595;52.180;4.512;2023-12-14T10:53:07;102083.16;;;6.21;76.00
82033;BME280;71595;52.180;4.512;2023-12-14T10:55:41;102089.22;;;6.23;76.56
82033;BME280;71595;52.180;4.512;2023-12-14T10:58:08;102088.66;;;6.26;76.58
82033;BME280;71595;52.180;4.512;2023-12-14T11:00:34;102092.19;;;6.32;76.84
82033;BME280;71595;52.180;4.512;2023-12-14T11:02:59;102095.72;;;6.33;76.82
82033;BME280;71595;52.180;4.512;2023-12-14T11:05:27;102088.59;;;6.37;75.65
82033;BME280;71595;52.180;4.512;2023-12-14T11:08:02;102096.22;;;6.45;75.43
82033;BME280;71595;52.180;4.512;2023-12-14T11:11:03;102099.25;;;6.43;75.93
82033;BME280;71595;52.180;4.512;2023-12-14T11:13:35;102102.81;;;6.49;76.10
82033;BME280;71595;52.180;4.512;2023-12-14T11:16:01;102102.00;;;6.48;75.43
82033;BME280;71595;52.180;4.512;2023-12-14T11:18:27;102103.13;;;6.42;76.09
82033;BME280;71595;52.180;4.512;2023-12-14T11:21:00;102102.28;;;6.42;75.11
82033;BME280;71595;52.180;4.512;2023-12-14T11:25:55;102102.28;;;6.42;75.73
82033;BME280;71595;52.180;4.512;2023-12-14T11:28:21;102106.09;;;6.51;74.83
82033;BME280;71595;52.180;4.512;2023-12-14T11:30:47;102115.69;;;6.54;75.15
82033;BME280;71595;52.180;4.512;2023-12-14T11:33:13;102114.34;;;6.46;75.00
82033;BME280;71595;52.180;4.512;2023-12-14T11:35:40;102110.25;;;6.48;75.27
82033;BME280;71595;52.180;4.512;2023-12-14T11:38:05;102125.59;;;6.50;75.66
82033;BME280;71595;52.180;4.512;2023-12-14T11:40:47;102123.69;;;6.50;75.85
82033;BME280;71595;52.180;4.512;2023-12-14T11:43:14;102120.94;;;6.50;76.78
82033;BME280;71595;52.180;4.512;2023-12-14T11:45:41;102112.13;;;6.53;76.46
82033;BME280;71595;52.180;4.512;2023-12-14T11:48:08;102125.88;;;6.53;77.50
82033;BME280;71595;52.180;4.512;2023-12-14T11:50:36;102118.72;;;6.52;77.63
82033;BME280;71595;52.180;4.512;2023-12-14T11:53:02;102128.59;;;6.53;77.83
82033;BME280;71595;52.180;4.512;2023-12-14T11:55:29;102137.38;;;6.55;78.23
82033;BME280;71595;52.180;4.512;2023-12-14T11:57:55;102136.25;;;6.61;78.64
82033;BME280;71595;52.180;4.512;2023-12-14T12:00:29;102132.41;;;6.62;78.13
82033;BME280;71595;52.180;4.512;2023-12-14T12:03:14;102131.28;;;6.63;77.42
82033;BME280;71595;52.180;4.512;2023-12-14T12:05:46;102128.56;;;6.58;76.14
82033;BME280;71595;52.180;4.512;2023-12-14T12:08:12;102137.63;;;6.64;76.16
82033;BME280;71595;52.180;4.512;2023-12-14T12:10:39;102129.09;;;6.60;75.98
82033;BME280;71595;52.180;4.512;2023-12-14T12:13:07;102139.81;;;6.62;76.81
82033;BME280;71595;52.180;4.512;2023-12-14T12:15:34;102130.47;;;6.63;76.29
82033;BME280;71595;52.180;4.512;2023-12-14T12:18:12;102124.19;;;6.62;76.24
82033;BME280;71595;52.180;4.512;2023-12-14T12:20:38;102126.09;;;6.62;76.51
82033;BME280;71595;52.180;4.512;2023-12-14T12:23:03;102122.53;;;6.61;77.28
82033;BME280;71595;52.180;4.512;2023-12-14T12:25:30;102114.00;;;6.63;76.42
82033;BME280;71595;52.180;4.512;2023-12-14T12:27:57;102122.50;;;6.66;76.12
82033;BME280;71595;52.180;4.512;2023-12-14T12:30:22;102132.38;;;6.68;76.85
82033;BME280;71595;52.180;4.512;2023-12-14T12:32:49;102129.59;;;6.73;76.81
82033;BME280;71595;52.180;4.512;2023-12-14T12:35:16;102125.47;;;6.75;76.46
82033;BME280;71595;52.180;4.512;2023-12-14T12:37:41;102137.28;;;6.81;76.19
82033;BME280;71595;52.180;4.512;2023-12-14T12:40:07;102140.53;;;6.83;75.73
82033;BME280;71595;52.180;4.512;2023-12-14T12:42:34;102137.81;;;6.83;76.44
82033;BME280;71595;52.180;4.512;2023-12-14T12:44:59;102133.69;;;6.80;76.54
82033;BME280;71595;52.180;4.512;2023-12-14T12:47:24;102135.63;;;6.80;77.46
82033;BME280;71595;52.180;4.512;2023-12-14T12:49:50;102136.44;;;6.80;78.01
82033;BME280;71595;52.180;4.512;2023-12-14T12:52:15;102143.06;;;6.74;77.87
82033;BME280;71595;52.180;4.512;2023-12-14T12:54:40;102147.72;;;6.74;78.72
82033;BME280;71595;52.180;4.512;2023-12-14T12:57:06;102145.50;;;6.81;77.41